createdAt,value
2018-08-24T00:00:11.246Z,19.20
2018-08-24T00:02:39.598Z,19.10
2018-08-24T00:05:08.718Z,19.10
2018-08-24T00:07:37.092Z,19.00
2018-08-24T00:10:06.202Z,19.00
2018-08-24T00:12:34.571Z,19.00
2018-08-24T00:15:02.950Z,18.90
2018-08-24T00:17:31.966Z,18.90
2018-08-24T00:20:01.443Z,18.80
2018-08-24T00:22:30.335Z,18.80
2018-08-24T00:24:59.225Z,18.70
2018-08-24T00:27:28.015Z,18.70
2018-08-24T00:29:58.145Z,18.60
2018-08-24T00:32:26.850Z,18.60
2018-08-24T00:34:55.277Z,18.50
2018-08-24T00:37:23.802Z,18.50
2018-08-24T00:39:52.586Z,18.50
2018-08-24T00:42:20.938Z,18.30
2018-08-24T00:44:49.511Z,18.30
2018-08-24T00:47:18.223Z,18.30
2018-08-24T00:49:47.102Z,18.30
2018-08-24T00:52:15.479Z,18.30
2018-08-24T00:54:44.068Z,18.30
2018-08-24T00:57:13.015Z,18.30
2018-08-24T00:59:41.394Z,18.30
2018-08-24T01:02:10.330Z,18.20
2018-08-24T01:04:39.246Z,18.10
2018-08-24T01:07:10.870Z,18.10
2018-08-24T01:09:39.862Z,18.10
2018-08-24T01:12:11.571Z,18.00
2018-08-24T01:14:41.759Z,18.00
2018-08-24T01:17:15.615Z,17.90
2018-08-24T01:19:44.655Z,17.90
2018-08-24T01:22:13.467Z,18.00
2018-08-24T01:24:41.894Z,18.00
2018-08-24T01:27:11.726Z,18.00
2018-08-24T01:29:42.206Z,18.00
2018-08-24T01:32:11.379Z,18.00
2018-08-24T01:34:40.074Z,18.00
2018-08-24T01:37:08.443Z,18.00
2018-08-24T01:39:37.327Z,17.90
2018-08-24T01:42:06.318Z,17.90
2018-08-24T01:44:34.942Z,17.90
2018-08-24T01:47:03.326Z,18.00
2018-08-24T01:49:31.942Z,18.00
2018-08-24T01:52:00.322Z,18.00
2018-08-24T01:54:28.695Z,18.00
2018-08-24T01:56:57.390Z,18.10
2018-08-24T01:59:26.106Z,18.00
2018-08-24T02:01:54.791Z,18.00
2018-08-24T02:04:23.150Z,18.00
2018-08-24T02:06:51.569Z,18.10
2018-08-24T02:09:23.730Z,18.00
2018-08-24T02:11:52.517Z,18.00
2018-08-24T02:14:27.948Z,18.00
2018-08-24T02:16:57.670Z,18.00
2018-08-24T02:19:31.330Z,18.00
2018-08-24T02:22:05.310Z,18.00
2018-08-24T02:24:33.678Z,18.00
2018-08-24T02:27:02.035Z,18.00
2018-08-24T02:29:30.738Z,18.00
2018-08-24T02:31:59.394Z,17.90
2018-08-24T02:34:27.771Z,17.80
2018-08-24T02:36:56.471Z,17.80
2018-08-24T02:39:25.522Z,17.80
2018-08-24T02:41:53.867Z,17.70
2018-08-24T02:44:22.270Z,17.70
2018-08-24T02:46:50.658Z,17.70
2018-08-24T02:49:19.556Z,17.70
2018-08-24T02:51:47.906Z,17.70
2018-08-24T02:54:16.488Z,17.70
2018-08-24T02:56:44.883Z,17.70
2018-08-24T02:59:14.282Z,17.70
2018-08-24T03:01:42.719Z,17.70
2018-08-24T03:04:11.102Z,17.60
2018-08-24T03:06:39.732Z,17.60
2018-08-24T03:09:09.707Z,17.60
2018-08-24T03:11:38.578Z,17.70
2018-08-24T03:14:07.261Z,17.60
2018-08-24T03:16:36.412Z,17.60
2018-08-24T03:19:05.303Z,17.50
2018-08-24T03:21:33.987Z,17.50
2018-08-24T03:24:02.570Z,17.50
2018-08-24T03:26:31.247Z,17.50
2018-08-24T03:28:59.842Z,17.60
2018-08-24T03:31:28.547Z,17.60
2018-08-24T03:33:57.471Z,17.60
2018-08-24T03:36:26.718Z,17.50
2018-08-24T03:38:55.090Z,17.50
2018-08-24T03:41:24.699Z,17.60
2018-08-24T03:43:53.175Z,17.60
2018-08-24T03:46:21.535Z,17.50
2018-08-24T03:48:50.463Z,17.50
2018-08-24T03:51:19.160Z,17.40
2018-08-24T03:53:48.126Z,17.40
2018-08-24T03:56:16.489Z,17.40
2018-08-24T03:58:45.047Z,17.50
2018-08-24T04:01:13.503Z,17.50
2018-08-24T04:03:41.902Z,17.60
2018-08-24T04:06:10.882Z,17.60
2018-08-24T04:08:39.830Z,17.60
2018-08-24T04:11:09.599Z,17.70
2018-08-24T04:13:38.250Z,17.80
2018-08-24T04:16:06.619Z,17.80
2018-08-24T04:18:35.792Z,17.80
2018-08-24T04:21:04.218Z,17.80
2018-08-24T04:23:32.762Z,17.90
2018-08-24T04:26:01.587Z,17.90
2018-08-24T04:28:30.546Z,18.00
2018-08-24T04:30:58.922Z,18.00
2018-08-24T04:33:27.426Z,18.00
2018-08-24T04:35:55.791Z,18.00
2018-08-24T04:38:24.183Z,18.00
2018-08-24T04:40:53.255Z,18.00
2018-08-24T04:43:22.286Z,18.00
2018-08-24T04:45:51.294Z,17.90
2018-08-24T04:48:19.686Z,17.90
2018-08-24T04:50:48.242Z,17.90
2018-08-24T04:53:17.295Z,18.00
2018-08-24T04:55:45.654Z,18.00
2018-08-24T04:58:15.099Z,18.00
2018-08-24T05:00:43.783Z,18.10
2018-08-24T05:03:12.451Z,18.10
2018-08-24T05:05:41.164Z,18.10
2018-08-24T05:08:09.757Z,18.10
2018-08-24T05:10:38.147Z,18.10
2018-08-24T05:13:06.823Z,18.10
2018-08-24T05:15:35.169Z,18.20
2018-08-24T05:18:03.851Z,18.20
2018-08-24T05:20:32.518Z,18.20
2018-08-24T05:23:01.371Z,18.30
2018-08-24T05:25:29.811Z,18.30
2018-08-24T05:27:58.409Z,18.40
2018-08-24T05:30:26.775Z,18.70
2018-08-24T05:32:55.471Z,19.20
2018-08-24T05:35:24.155Z,19.60
2018-08-24T05:37:52.550Z,19.90
2018-08-24T05:40:21.262Z,20.60
2018-08-24T05:42:49.611Z,20.70
2018-08-24T05:45:18.482Z,20.50
2018-08-24T05:47:47.147Z,20.60
2018-08-24T05:50:15.831Z,20.50
2018-08-24T05:52:44.469Z,21.20
2018-08-24T05:55:13.126Z,21.50
2018-08-24T05:57:41.886Z,21.40
2018-08-24T06:00:11.192Z,21.10
2018-08-24T06:02:40.080Z,20.60
2018-08-24T06:05:09.275Z,20.20
2018-08-24T06:07:37.927Z,20.50
2018-08-24T06:10:06.656Z,20.80
2018-08-24T06:12:35.358Z,21.30
2018-08-24T06:15:04.330Z,21.60
2018-08-24T06:17:38.434Z,21.60
2018-08-24T06:20:07.628Z,21.60
2018-08-24T06:22:36.219Z,21.70
2018-08-24T06:25:04.646Z,21.50
2018-08-24T06:27:32.999Z,21.20
2018-08-24T06:30:01.366Z,21.00
2018-08-24T06:32:29.753Z,21.00
2018-08-24T06:34:58.438Z,20.90
2018-08-24T06:37:26.787Z,20.90
2018-08-24T06:39:55.483Z,20.90
2018-08-24T06:42:23.936Z,20.90
2018-08-24T06:44:52.334Z,20.80
2018-08-24T06:47:21.513Z,20.80
2018-08-24T06:49:50.658Z,20.80
2018-08-24T06:52:19.324Z,20.80
2018-08-24T06:54:48.394Z,20.80
2018-08-24T06:57:17.010Z,20.90
2018-08-24T06:59:45.557Z,21.10
2018-08-24T07:02:14.395Z,21.30
2018-08-24T07:04:43.012Z,21.40
2018-08-24T07:07:11.654Z,21.60
2018-08-24T07:09:40.230Z,22.40
2018-08-24T07:12:10.659Z,22.80
2018-08-24T07:14:39.638Z,23.20
2018-08-24T07:17:08.030Z,23.60
2018-08-24T07:19:36.440Z,23.40
2018-08-24T07:22:06.652Z,23.10
2018-08-24T07:24:35.007Z,23.20
2018-08-24T07:27:03.776Z,23.10
2018-08-24T07:29:32.134Z,22.90
2018-08-24T07:32:00.882Z,22.70
2018-08-24T07:34:29.233Z,22.50
2018-08-24T07:36:57.903Z,22.30
2018-08-24T07:39:27.062Z,22.30
2018-08-24T07:41:55.761Z,22.20
2018-08-24T07:44:24.083Z,22.10
2018-08-24T07:46:53.022Z,22.00
2018-08-24T07:49:21.706Z,21.90
2018-08-24T07:51:50.354Z,21.80
2018-08-24T07:54:18.774Z,21.70
2018-08-24T07:56:48.011Z,21.70
2018-08-24T07:59:16.366Z,21.60
2018-08-24T08:01:44.719Z,21.70
2018-08-24T08:04:13.462Z,21.70
2018-08-24T08:06:42.107Z,21.90
2018-08-24T08:09:10.508Z,22.20
2018-08-24T08:11:38.892Z,22.40
2018-08-24T08:14:07.682Z,22.60
2018-08-24T08:16:36.591Z,22.90
2018-08-24T08:19:05.030Z,23.00
2018-08-24T08:21:33.424Z,23.20
2018-08-24T08:24:01.808Z,23.20
2018-08-24T08:26:30.187Z,23.20
2018-08-24T08:28:58.570Z,23.30
2018-08-24T08:31:27.135Z,23.30
2018-08-24T08:33:55.520Z,23.50
2018-08-24T08:36:23.898Z,23.60
2018-08-24T08:38:52.617Z,23.80
2018-08-24T08:41:21.323Z,23.80
2018-08-24T08:43:49.967Z,24.00
2018-08-24T08:46:18.332Z,24.10
2018-08-24T08:48:47.335Z,24.60
2018-08-24T08:51:16.003Z,24.80
2018-08-24T08:53:44.651Z,25.50
2018-08-24T08:56:13.054Z,25.70
2018-08-24T08:58:41.418Z,26.00
2018-08-24T09:01:10.042Z,26.10
2018-08-24T09:03:38.958Z,25.90
2018-08-24T09:06:07.442Z,25.70
2018-08-24T09:08:36.323Z,25.40
2018-08-24T09:11:05.104Z,25.30
2018-08-24T09:13:33.483Z,25.10
2018-08-24T09:16:01.939Z,25.00
2018-08-24T09:18:35.946Z,25.00
2018-08-24T09:21:09.752Z,24.70
2018-08-24T09:23:43.404Z,24.60
2018-08-24T09:27:17.088Z,24.20
2018-08-24T09:29:45.886Z,24.00
2018-08-24T09:32:14.667Z,23.90
2018-08-24T09:34:43.343Z,23.80
2018-08-24T09:39:45.131Z,23.90
2018-08-24T09:42:13.510Z,25.50
2018-08-24T09:44:42.126Z,25.90
2018-08-24T09:52:17.951Z,27.70
2018-08-24T09:54:46.758Z,28.60
2018-08-24T09:57:15.399Z,28.70
2018-08-24T09:59:43.758Z,28.70
2018-08-24T10:02:17.935Z,28.80
2018-08-24T10:04:51.902Z,28.40
2018-08-24T10:07:28.362Z,27.70
2018-08-24T10:09:57.255Z,26.90
2018-08-24T10:12:25.894Z,27.00
2018-08-24T10:14:54.255Z,27.20
2018-08-24T10:17:26.682Z,27.20
2018-08-24T10:19:55.386Z,27.40
2018-08-24T10:22:23.722Z,27.40
2018-08-24T10:24:52.095Z,27.20
2018-08-24T10:27:20.771Z,26.60
2018-08-24T10:29:49.296Z,26.30
2018-08-24T10:32:17.586Z,26.20
2018-08-24T10:34:46.225Z,26.20
2018-08-24T10:37:14.563Z,26.40
2018-08-24T10:39:43.518Z,26.60
2018-08-24T10:44:43.635Z,26.30
2018-08-24T10:47:13.495Z,26.20
2018-08-24T10:49:42.628Z,26.40
2018-08-24T10:52:13.147Z,26.40
2018-08-24T10:54:43.129Z,25.90
2018-08-24T10:57:12.695Z,25.80
2018-08-24T10:59:41.088Z,25.70
2018-08-24T11:02:11.238Z,25.80
2018-08-24T11:04:41.528Z,26.00
2018-08-24T11:07:09.975Z,26.60
2018-08-24T11:09:38.870Z,26.80
2018-08-24T11:12:07.474Z,26.60
2018-08-24T11:14:36.362Z,26.10
2018-08-24T11:17:04.734Z,25.80
2018-08-24T11:19:33.178Z,25.70
2018-08-24T11:22:02.003Z,25.80
2018-08-24T11:24:37.314Z,25.40
2018-08-24T11:27:05.731Z,24.30
2018-08-24T11:29:34.102Z,23.90
2018-08-24T11:32:02.963Z,23.60
2018-08-24T11:36:59.942Z,22.20
2018-08-24T11:39:28.634Z,22.00
2018-08-24T11:41:57.018Z,21.40
2018-08-24T11:44:25.602Z,21.00
2018-08-24T11:56:47.534Z,20.20
2018-08-24T12:04:13.207Z,20.00
2018-08-24T12:06:41.698Z,20.00
2018-08-24T12:09:10.710Z,19.80
2018-08-24T12:11:39.071Z,19.70
2018-08-24T12:14:07.730Z,19.60
2018-08-24T12:16:36.367Z,19.40
2018-08-24T12:19:05.008Z,19.40
2018-08-24T12:21:33.423Z,19.50
2018-08-24T12:24:02.179Z,20.00
2018-08-24T12:26:30.603Z,20.20
2018-08-24T12:28:59.535Z,20.20
2018-08-24T12:31:28.290Z,20.20
2018-08-24T12:33:57.266Z,20.10
2018-08-24T12:36:26.159Z,20.00
2018-08-24T12:38:54.747Z,20.30
2018-08-24T12:41:23.206Z,20.30
2018-08-24T12:43:51.492Z,20.20
2018-08-24T12:46:20.509Z,19.90
2018-08-24T12:53:46.093Z,19.20
2018-08-24T12:56:20.775Z,19.30
2018-08-24T12:58:50.627Z,19.10
2018-08-24T13:01:19.627Z,19.20
2018-08-24T13:03:48.227Z,19.30
2018-08-24T13:06:16.603Z,19.40
2018-08-24T13:08:45.346Z,19.30
2018-08-24T13:11:14.502Z,19.40
2018-08-24T13:13:43.170Z,19.30
2018-08-24T13:16:11.883Z,19.20
2018-08-24T13:18:41.037Z,19.10
2018-08-24T13:28:34.683Z,18.50
2018-08-24T13:31:03.069Z,18.60
2018-08-24T13:33:32.643Z,18.60
2018-08-24T13:36:01.640Z,18.50
2018-08-24T13:38:30.495Z,18.60
2018-08-24T13:40:58.950Z,18.60
2018-08-24T13:43:27.338Z,18.80
2018-08-24T13:45:56.395Z,18.80
2018-08-24T13:48:24.771Z,19.00
2018-08-24T13:50:53.258Z,19.10
2018-08-24T13:53:21.871Z,19.00
2018-08-24T13:55:50.819Z,18.90
2018-08-24T13:58:19.706Z,18.70
2018-08-24T14:00:48.386Z,18.60
2018-08-24T14:03:16.759Z,18.90
2018-08-24T14:05:45.548Z,18.90
2018-08-24T14:08:13.919Z,19.00
2018-08-24T14:10:42.610Z,18.70
2018-08-24T14:13:11.344Z,18.70
2018-08-24T14:15:40.051Z,19.00
2018-08-24T14:18:08.706Z,19.50
2018-08-24T14:20:37.081Z,19.80
2018-08-24T14:23:06.002Z,19.80
2018-08-24T14:25:34.445Z,19.80
2018-08-24T14:28:03.303Z,19.80
2018-08-24T14:30:31.671Z,19.90
2018-08-24T14:33:00.383Z,20.00
2018-08-24T14:35:29.766Z,20.20
2018-08-24T14:37:58.514Z,20.40
2018-08-24T14:40:27.554Z,20.40
2018-08-24T14:42:56.246Z,20.50
2018-08-24T14:45:25.003Z,20.40
2018-08-24T14:47:53.386Z,20.30
2018-08-24T14:50:22.303Z,20.00
2018-08-24T14:52:50.718Z,20.00
2018-08-24T14:55:19.342Z,20.30
2018-08-24T14:57:48.262Z,20.40
2018-08-24T15:00:16.876Z,20.50
2018-08-24T15:02:45.257Z,20.50
2018-08-24T15:05:13.919Z,20.40
2018-08-24T15:07:43.238Z,20.20
2018-08-24T15:10:12.222Z,20.20
2018-08-24T15:12:41.330Z,20.20
2018-08-24T15:15:09.718Z,20.10
2018-08-24T15:17:38.098Z,20.00
2018-08-24T15:20:07.354Z,19.90
2018-08-24T15:22:35.775Z,19.70
2018-08-24T15:25:04.879Z,19.70
2018-08-24T15:27:33.432Z,19.70
2018-08-24T15:30:02.177Z,19.60
2018-08-24T15:32:30.673Z,19.60
2018-08-24T15:34:59.066Z,19.70
2018-08-24T15:37:28.172Z,19.80
2018-08-24T15:39:56.567Z,19.80
2018-08-24T15:42:25.162Z,19.60
2018-08-24T15:44:53.562Z,19.40
2018-08-24T15:47:21.982Z,19.30
2018-08-24T15:49:52.955Z,19.50
2018-08-24T15:52:21.319Z,19.60
2018-08-24T15:54:49.698Z,19.70
2018-08-24T15:57:18.310Z,19.70
2018-08-24T15:59:46.675Z,19.80
2018-08-24T16:02:15.241Z,19.60
2018-08-24T16:04:43.606Z,19.60
2018-08-24T16:07:13.411Z,19.60
2018-08-24T16:09:42.928Z,19.40
2018-08-24T16:12:11.395Z,19.20
2018-08-24T16:14:40.546Z,19.10
2018-08-24T16:17:09.183Z,19.10
2018-08-24T16:19:37.619Z,19.20
2018-08-24T16:22:06.092Z,19.20
2018-08-24T16:24:34.514Z,19.20
2018-08-24T16:27:03.183Z,19.20
2018-08-24T16:29:32.079Z,19.20
2018-08-24T16:32:00.467Z,19.20
2018-08-24T16:34:28.832Z,19.10
2018-08-24T16:36:57.692Z,19.00
2018-08-24T16:39:26.031Z,18.90
2018-08-24T16:41:55.190Z,18.90
2018-08-24T16:44:24.395Z,18.80
2018-08-24T16:46:53.248Z,18.70
2018-08-24T16:49:22.254Z,18.70
2018-08-24T16:51:50.863Z,18.70
2018-08-24T16:54:19.851Z,18.70
2018-08-24T16:56:48.558Z,18.50
2018-08-24T16:59:17.230Z,18.50
2018-08-24T17:01:45.595Z,18.50
2018-08-24T17:04:14.694Z,18.50
2018-08-24T17:06:43.042Z,18.50
2018-08-24T17:09:12.834Z,18.50
2018-08-24T17:11:41.730Z,18.50
2018-08-24T17:14:10.666Z,18.30
2018-08-24T17:16:40.311Z,18.30
2018-08-24T17:19:08.936Z,18.10
2018-08-24T17:21:37.621Z,17.70
2018-08-24T17:24:06.179Z,17.80
2018-08-24T17:31:31.106Z,17.60
2018-08-24T17:33:59.632Z,17.50
2018-08-24T17:36:28.263Z,17.60
2018-08-24T17:38:56.635Z,17.60
2018-08-24T17:41:25.022Z,17.70
2018-08-24T17:43:53.390Z,17.70
2018-08-24T17:46:22.402Z,17.70
2018-08-24T17:48:50.766Z,17.80
2018-08-24T17:51:21.974Z,17.70
2018-08-24T17:53:50.614Z,17.70
2018-08-24T17:56:18.974Z,17.70
2018-08-24T17:58:47.726Z,17.60
2018-08-24T18:01:16.599Z,17.60
2018-08-24T18:03:45.305Z,17.60
2018-08-24T18:06:14.280Z,17.50
2018-08-24T18:08:42.715Z,17.50
2018-08-24T18:11:11.103Z,17.60
2018-08-24T18:13:40.054Z,17.60
2018-08-24T18:16:08.690Z,17.50
2018-08-24T18:18:37.071Z,17.50
2018-08-24T18:21:06.095Z,17.40
2018-08-24T18:23:34.735Z,17.40
2018-08-24T18:26:03.691Z,17.30
2018-08-24T18:28:32.463Z,17.30
2018-08-24T18:31:00.889Z,17.30
2018-08-24T18:33:30.894Z,17.30
2018-08-24T18:35:59.279Z,17.10
2018-08-24T18:38:27.944Z,17.00
2018-08-24T18:40:56.307Z,16.80
2018-08-24T18:43:24.903Z,16.70
2018-08-24T18:45:53.575Z,16.60
2018-08-24T18:48:22.265Z,16.60
2018-08-24T18:50:50.748Z,16.60
2018-08-24T18:53:19.319Z,16.50
2018-08-24T18:55:47.699Z,16.50
2018-08-24T18:58:16.087Z,16.40
2018-08-24T19:00:44.458Z,16.40
2018-08-24T19:03:13.136Z,16.40
2018-08-24T19:05:41.498Z,16.40
2018-08-24T19:08:11.426Z,16.40
2018-08-24T19:10:45.046Z,16.40
2018-08-24T19:13:15.351Z,16.30
2018-08-24T19:15:44.640Z,16.30
2018-08-24T19:18:18.310Z,16.30
2018-08-24T19:20:52.541Z,16.30
2018-08-24T19:23:21.254Z,16.30
2018-08-24T19:25:50.175Z,16.30
2018-08-24T19:28:24.023Z,16.20
2018-08-24T19:30:53.134Z,16.30
2018-08-24T19:33:21.514Z,16.30
2018-08-24T19:35:49.891Z,16.20
2018-08-24T19:38:18.594Z,16.10
2018-08-24T19:40:52.539Z,16.10
2018-08-24T19:43:21.631Z,16.20
2018-08-24T19:45:49.999Z,16.10
2018-08-24T19:48:23.931Z,16.20
2018-08-24T19:50:52.511Z,16.20
2018-08-24T19:53:21.000Z,16.20
2018-08-24T19:55:49.362Z,16.10
2018-08-24T19:58:23.170Z,16.10
2018-08-24T20:00:51.842Z,16.10
2018-08-24T20:03:20.162Z,16.10
2018-08-24T20:05:54.011Z,16.10
2018-08-24T20:08:27.802Z,16.10
2018-08-24T20:10:56.211Z,16.10
2018-08-24T20:13:24.906Z,16.10
2018-08-24T20:15:58.876Z,16.10
2018-08-24T20:18:27.527Z,16.00
2018-08-24T20:20:55.891Z,16.00
2018-08-24T20:23:25.182Z,16.00
2018-08-24T20:25:53.820Z,16.00
2018-08-24T20:28:22.529Z,16.00
2018-08-24T20:30:50.891Z,16.00
2018-08-24T20:33:19.571Z,16.00
2018-08-24T20:35:48.194Z,16.00
2018-08-24T20:38:16.584Z,16.00
2018-08-24T20:40:45.119Z,16.00
2018-08-24T20:43:13.756Z,16.00
2018-08-24T20:45:42.161Z,15.90
2018-08-24T20:48:10.599Z,15.90
2018-08-24T20:50:39.447Z,15.90
2018-08-24T20:53:08.147Z,15.90
2018-08-24T20:55:36.567Z,15.90
2018-08-24T20:58:04.972Z,15.80
2018-08-24T21:00:33.367Z,15.70
2018-08-24T21:03:02.067Z,15.70
2018-08-24T21:05:30.426Z,15.70
2018-08-24T21:07:59.118Z,15.60
2018-08-24T21:10:28.077Z,15.60
2018-08-24T21:12:56.419Z,15.60
2018-08-24T21:15:24.811Z,15.60
2018-08-24T21:17:53.762Z,15.60
2018-08-24T21:20:22.514Z,15.60
2018-08-24T21:22:50.866Z,15.60
2018-08-24T21:25:20.151Z,15.60
2018-08-24T21:27:49.114Z,15.70
2018-08-24T21:30:17.885Z,15.70
2018-08-24T21:32:46.410Z,15.70
2018-08-24T21:35:14.791Z,15.60
2018-08-24T21:37:43.163Z,15.60
2018-08-24T21:40:11.523Z,15.60
2018-08-24T21:42:40.424Z,15.60
2018-08-24T21:45:08.827Z,15.70
2018-08-24T21:47:37.206Z,15.70
2018-08-24T21:50:06.504Z,15.60
2018-08-24T21:52:34.886Z,15.70
2018-08-24T21:55:03.514Z,15.70
2018-08-24T21:57:32.323Z,15.80
2018-08-24T22:00:00.997Z,15.80
2018-08-24T22:02:29.359Z,15.80
2018-08-24T22:04:57.727Z,15.80
2018-08-24T22:07:26.211Z,15.90
2018-08-24T22:09:54.570Z,15.90
2018-08-24T22:12:22.922Z,16.00
2018-08-24T22:14:51.335Z,16.10
2018-08-24T22:17:19.754Z,16.00
2018-08-24T22:19:48.438Z,16.10
2018-08-24T22:22:17.106Z,16.20
2018-08-24T22:24:45.460Z,16.30
2018-08-24T22:27:14.134Z,16.30
2018-08-24T22:29:42.494Z,16.30
2018-08-24T22:32:11.382Z,16.40
2018-08-24T22:34:39.883Z,16.40
2018-08-24T22:37:08.304Z,16.40
2018-08-24T22:39:37.326Z,16.40
2018-08-24T22:42:06.430Z,16.40
2018-08-24T22:44:34.915Z,16.40
2018-08-24T22:47:03.687Z,16.40
2018-08-24T22:49:32.766Z,16.40
2018-08-24T22:52:01.163Z,16.40
2018-08-24T22:54:29.534Z,16.40
2018-08-24T22:56:58.926Z,16.40
2018-08-24T22:59:27.330Z,16.40
2018-08-24T23:01:56.030Z,16.40
2018-08-24T23:04:24.401Z,16.40
2018-08-24T23:06:52.810Z,16.40
2018-08-24T23:09:21.171Z,16.30
2018-08-24T23:11:49.894Z,16.30
2018-08-24T23:14:18.267Z,16.30
2018-08-24T23:16:46.630Z,16.30
2018-08-24T23:19:15.026Z,16.20
2018-08-24T23:21:43.731Z,16.20
2018-08-24T23:24:12.074Z,16.20
2018-08-24T23:26:40.714Z,16.20
2018-08-24T23:29:09.056Z,16.10
2018-08-24T23:31:37.662Z,16.10
2018-08-24T23:34:06.321Z,16.00
2018-08-24T23:36:34.683Z,16.00
2018-08-24T23:39:04.222Z,15.90
2018-08-24T23:41:32.826Z,15.80
2018-08-24T23:44:01.223Z,15.70
2018-08-24T23:46:29.620Z,15.60
2018-08-24T23:48:57.966Z,15.60
2018-08-24T23:51:26.519Z,15.50
2018-08-24T23:53:54.933Z,15.40
2018-08-24T23:56:23.235Z,15.30
2018-08-24T23:58:52.275Z,15.20
